Impacts TAF Board INFO
FOR SITUATIONAL AWARENESS. NOT TO BE USED FOR FLIGHT PLANNING PURPOSES.
IDs:

KSFO - San Francisco Intl, CA, US

Issued at 0306 UTC 17 Dec 2017
Updated at 0424 UTC 17 Dec 2017
Potential Impact None Slight Moderate High
Time<<18/05Z 18/06Z 18/07Z 18/08Z 18/09Z 18/10Z 18/11Z 18/12Z 18/13Z 18/14Z 18/15Z 18/16Z 18/17Z
Type PRVL
VIS >6
CIG --
Cover SKC
FltCat VFR
WX --
WDir 350
WSpd 4
WGst --

Raw TAF
KSFO 170306Z 1703/1806 34015KT P6SM SKC WS020/36040KT
  FM171200 34010KT P6SM SKC WS020/36030KT
  FM171600 04005KT P6SM SKC WS020/05030KT
  FM172100 35004KT P6SM SKC WS020/02025KT


METAR Board
Radar Display
Forecast Discussion

FOR SITUATIONAL AWARENESS. NOT TO BE USED FOR FLIGHT PLANNING PURPOSES.